sensor_id;sensor_type;location;lat;lon;timestamp;temperature;humidity
285;DHT22;127;48.770;9.212;2023-03-20T00:01:11;9.00;1.00
285;DHT22;127;48.770;9.212;2023-03-20T00:03:43;8.90;1.00
285;DHT22;127;48.770;9.212;2023-03-20T00:06:14;8.90;1.00
285;DHT22;127;48.770;9.212;2023-03-20T00:08:44;9.00;1.00
285;DHT22;127;48.770;9.212;2023-03-20T00:11:28;9.10;1.00
285;DHT22;127;48.770;9.212;2023-03-20T00:13:59;9.10;1.00
285;DHT22;127;48.770;9.212;2023-03-20T00:16:30;9.10;1.00
285;DHT22;127;48.770;9.212;2023-03-20T00:19:02;9.10;1.00
285;DHT22;127;48.770;9.212;2023-03-20T00:21:31;9.00;1.00
285;DHT22;127;48.770;9.212;2023-03-20T00:24:00;9.00;1.00
285;DHT22;127;48.770;9.212;2023-03-20T00:26:32;9.00;1.00
285;DHT22;127;48.770;9.212;2023-03-20T00:29:04;9.00;1.00
285;DHT22;127;48.770;9.212;2023-03-20T00:31:35;8.90;1.00
285;DHT22;127;48.770;9.212;2023-03-20T00:34:12;8.70;1.00
285;DHT22;127;48.770;9.212;2023-03-20T00:36:42;8.70;1.00
285;DHT22;127;48.770;9.212;2023-03-20T00:39:10;8.80;1.00
285;DHT22;127;48.770;9.212;2023-03-20T00:41:42;8.70;1.00
285;DHT22;127;48.770;9.212;2023-03-20T00:44:20;8.50;1.00
285;DHT22;127;48.770;9.212;2023-03-20T00:46:51;8.40;1.00
285;DHT22;127;48.770;9.212;2023-03-20T00:49:25;8.40;1.00
285;DHT22;127;48.770;9.212;2023-03-20T00:51:54;8.40;1.00
285;DHT22;127;48.770;9.212;2023-03-20T00:54:23;8.40;1.00
285;DHT22;127;48.770;9.212;2023-03-20T00:56:54;8.50;1.00
285;DHT22;127;48.770;9.212;2023-03-20T00:59:29;8.50;1.00
285;DHT22;127;48.770;9.212;2023-03-20T01:01:59;8.50;1.00
285;DHT22;127;48.770;9.212;2023-03-20T01:04:34;8.50;1.00
285;DHT22;127;48.770;9.212;2023-03-20T01:07:05;8.50;1.00
285;DHT22;127;48.770;9.212;2023-03-20T01:09:34;8.50;1.00
285;DHT22;127;48.770;9.212;2023-03-20T01:12:03;8.60;1.00
285;DHT22;127;48.770;9.212;2023-03-20T01:14:33;8.60;1.00
285;DHT22;127;48.770;9.212;2023-03-20T01:17:02;8.60;1.00
285;DHT22;127;48.770;9.212;2023-03-20T01:19:33;8.70;1.00
285;DHT22;127;48.770;9.212;2023-03-20T01:22:02;8.60;1.00
285;DHT22;127;48.770;9.212;2023-03-20T01:24:31;8.50;1.00
285;DHT22;127;48.770;9.212;2023-03-20T01:26:59;8.40;1.00
285;DHT22;127;48.770;9.212;2023-03-20T01:29:30;8.30;1.00
285;DHT22;127;48.770;9.212;2023-03-20T01:31:59;8.30;1.00
285;DHT22;127;48.770;9.212;2023-03-20T01:34:27;8.20;1.00
285;DHT22;127;48.770;9.212;2023-03-20T01:36:59;8.10;1.00
285;DHT22;127;48.770;9.212;2023-03-20T01:39:31;8.20;1.00
285;DHT22;127;48.770;9.212;2023-03-20T01:42:01;8.10;1.00
285;DHT22;127;48.770;9.212;2023-03-20T01:44:33;8.10;1.00
285;DHT22;127;48.770;9.212;2023-03-20T01:47:13;8.20;1.00
285;DHT22;127;48.770;9.212;2023-03-20T01:52:44;8.30;99.90
285;DHT22;127;48.770;9.212;2023-03-20T01:55:13;8.30;99.90
285;DHT22;127;48.770;9.212;2023-03-20T01:57:42;8.40;99.90
285;DHT22;127;48.770;9.212;2023-03-20T02:00:13;8.50;99.90
285;DHT22;127;48.770;9.212;2023-03-20T02:02:45;8.50;99.90
285;DHT22;127;48.770;9.212;2023-03-20T02:05:17;8.60;99.90
285;DHT22;127;48.770;9.212;2023-03-20T02:07:53;8.60;99.90
285;DHT22;127;48.770;9.212;2023-03-20T02:10:24;8.60;99.90
285;DHT22;127;48.770;9.212;2023-03-20T02:12:53;8.60;99.90
285;DHT22;127;48.770;9.212;2023-03-20T02:15:25;8.60;99.90
285;DHT22;127;48.770;9.212;2023-03-20T02:17:54;8.70;99.90
285;DHT22;127;48.770;9.212;2023-03-20T02:20:32;8.70;99.90
285;DHT22;127;48.770;9.212;2023-03-20T02:23:43;8.50;99.90
285;DHT22;127;48.770;9.212;2023-03-20T02:26:30;8.50;99.90
285;DHT22;127;48.770;9.212;2023-03-20T02:35:31;8.30;99.90
285;DHT22;127;48.770;9.212;2023-03-20T02:38:22;8.20;99.90
285;DHT22;127;48.770;9.212;2023-03-20T02:40:58;8.30;99.90
285;DHT22;127;48.770;9.212;2023-03-20T02:43:37;8.30;99.90
285;DHT22;127;48.770;9.212;2023-03-20T02:46:15;8.40;99.90
285;DHT22;127;48.770;9.212;2023-03-20T02:48:54;8.40;99.90
285;DHT22;127;48.770;9.212;2023-03-20T02:51:31;8.40;99.90
285;DHT22;127;48.770;9.212;2023-03-20T02:54:06;8.50;99.90
285;DHT22;127;48.770;9.212;2023-03-20T02:56:45;8.50;99.90
285;DHT22;127;48.770;9.212;2023-03-20T02:59:22;8.40;99.90
285;DHT22;127;48.770;9.212;2023-03-20T03:01:58;8.40;99.90
285;DHT22;127;48.770;9.212;2023-03-20T03:04:34;8.40;99.90
285;DHT22;127;48.770;9.212;2023-03-20T03:07:05;8.40;99.90
285;DHT22;127;48.770;9.212;2023-03-20T03:09:40;8.40;99.90
285;DHT22;127;48.770;9.212;2023-03-20T03:12:14;8.40;99.90
285;DHT22;127;48.770;9.212;2023-03-20T03:14:46;8.40;99.90
285;DHT22;127;48.770;9.212;2023-03-20T03:17:17;8.40;99.90
285;DHT22;127;48.770;9.212;2023-03-20T03:19:49;8.40;99.90
285;DHT22;127;48.770;9.212;2023-03-20T03:22:19;8.40;99.90
285;DHT22;127;48.770;9.212;2023-03-20T03:24:52;8.40;99.90
285;DHT22;127;48.770;9.212;2023-03-20T03:27:24;8.40;99.90
285;DHT22;127;48.770;9.212;2023-03-20T03:29:56;8.40;99.90
285;DHT22;127;48.770;9.212;2023-03-20T03:32:28;8.50;99.90
285;DHT22;127;48.770;9.212;2023-03-20T03:34:58;8.40;99.90
285;DHT22;127;48.770;9.212;2023-03-20T03:37:38;8.50;99.90
285;DHT22;127;48.770;9.212;2023-03-20T03:40:18;8.50;99.90
285;DHT22;127;48.770;9.212;2023-03-20T03:42:54;8.50;99.90
285;DHT22;127;48.770;9.212;2023-03-20T03:45:29;8.60;99.90
285;DHT22;127;48.770;9.212;2023-03-20T03:48:02;8.50;99.90
285;DHT22;127;48.770;9.212;2023-03-20T03:50:37;8.50;99.90
285;DHT22;127;48.770;9.212;2023-03-20T03:53:13;8.50;99.90
285;DHT22;127;48.770;9.212;2023-03-20T03:55:48;8.50;99.90
285;DHT22;127;48.770;9.212;2023-03-20T03:58:20;8.50;99.90
285;DHT22;127;48.770;9.212;2023-03-20T04:00:51;8.40;99.90
285;DHT22;127;48.770;9.212;2023-03-20T04:03:24;8.40;99.90
285;DHT22;127;48.770;9.212;2023-03-20T04:05:54;8.30;99.90
285;DHT22;127;48.770;9.212;2023-03-20T04:08:24;8.40;99.90
285;DHT22;127;48.770;9.212;2023-03-20T04:10:55;8.30;99.90
285;DHT22;127;48.770;9.212;2023-03-20T04:13:24;8.40;99.90
285;DHT22;127;48.770;9.212;2023-03-20T04:15:52;8.40;99.90
285;DHT22;127;48.770;9.212;2023-03-20T04:18:22;8.40;99.90
285;DHT22;127;48.770;9.212;2023-03-20T04:20:50;8.40;99.90
285;DHT22;127;48.770;9.212;2023-03-20T04:23:19;8.40;99.90
285;DHT22;127;48.770;9.212;2023-03-20T04:25:48;8.40;99.90
285;DHT22;127;48.770;9.212;2023-03-20T04:28:20;8.40;99.90
285;DHT22;127;48.770;9.212;2023-03-20T04:30:51;8.40;99.90
285;DHT22;127;48.770;9.212;2023-03-20T04:33:20;8.30;99.90
285;DHT22;127;48.770;9.212;2023-03-20T04:35:49;8.40;99.90
285;DHT22;127;48.770;9.212;2023-03-20T04:38:18;8.40;99.90
285;DHT22;127;48.770;9.212;2023-03-20T04:40:48;8.40;99.90
285;DHT22;127;48.770;9.212;2023-03-20T04:43:19;8.30;99.90
285;DHT22;127;48.770;9.212;2023-03-20T04:45:48;8.20;99.90
285;DHT22;127;48.770;9.212;2023-03-20T04:48:16;8.10;99.90
285;DHT22;127;48.770;9.212;2023-03-20T04:50:45;8.10;99.90
285;DHT22;127;48.770;9.212;2023-03-20T04:53:16;8.10;99.90
285;DHT22;127;48.770;9.212;2023-03-20T04:55:45;8.10;99.90
285;DHT22;127;48.770;9.212;2023-03-20T04:58:14;8.10;99.90
285;DHT22;127;48.770;9.212;2023-03-20T05:00:45;8.00;99.90
285;DHT22;127;48.770;9.212;2023-03-20T05:03:14;8.10;99.90
285;DHT22;127;48.770;9.212;2023-03-20T05:05:43;8.10;99.90
285;DHT22;127;48.770;9.212;2023-03-20T05:08:11;8.20;99.90
285;DHT22;127;48.770;9.212;2023-03-20T05:10:40;8.10;99.90
285;DHT22;127;48.770;9.212;2023-03-20T05:13:09;8.20;99.90
285;DHT22;127;48.770;9.212;2023-03-20T05:15:37;8.10;99.90
285;DHT22;127;48.770;9.212;2023-03-20T05:18:08;8.10;99.90
285;DHT22;127;48.770;9.212;2023-03-20T05:20:37;8.10;99.90
285;DHT22;127;48.770;9.212;2023-03-20T05:23:06;8.20;99.90
285;DHT22;127;48.770;9.212;2023-03-20T05:25:34;8.20;99.90
285;DHT22;127;48.770;9.212;2023-03-20T05:28:03;8.30;99.90
285;DHT22;127;48.770;9.212;2023-03-20T05:30:32;8.30;99.90
285;DHT22;127;48.770;9.212;2023-03-20T05:33:01;8.30;99.90
285;DHT22;127;48.770;9.212;2023-03-20T05:35:32;8.30;99.90
285;DHT22;127;48.770;9.212;2023-03-20T05:38:01;8.30;99.90
285;DHT22;127;48.770;9.212;2023-03-20T05:40:29;8.40;99.90
285;DHT22;127;48.770;9.212;2023-03-20T05:42:58;8.40;99.90
285;DHT22;127;48.770;9.212;2023-03-20T05:45:26;8.50;99.90
285;DHT22;127;48.770;9.212;2023-03-20T05:47:55;8.50;99.90
285;DHT22;127;48.770;9.212;2023-03-20T05:50:24;8.50;99.90
285;DHT22;127;48.770;9.212;2023-03-20T05:52:55;8.50;99.90
285;DHT22;127;48.770;9.212;2023-03-20T05:55:23;8.50;99.90
285;DHT22;127;48.770;9.212;2023-03-20T05:57:52;8.60;99.90
285;DHT22;127;48.770;9.212;2023-03-20T06:00:22;8.60;99.90
285;DHT22;127;48.770;9.212;2023-03-20T06:02:51;8.50;99.90
285;DHT22;127;48.770;9.212;2023-03-20T06:05:19;8.50;99.90
285;DHT22;127;48.770;9.212;2023-03-20T06:07:48;8.60;99.90
285;DHT22;127;48.770;9.212;2023-03-20T06:10:19;8.60;99.90
285;DHT22;127;48.770;9.212;2023-03-20T06:12:48;8.70;99.90
285;DHT22;127;48.770;9.212;2023-03-20T06:15:17;8.70;99.90
285;DHT22;127;48.770;9.212;2023-03-20T06:17:45;8.60;99.90
285;DHT22;127;48.770;9.212;2023-03-20T06:20:14;8.80;99.90
285;DHT22;127;48.770;9.212;2023-03-20T06:22:43;8.80;99.90
285;DHT22;127;48.770;9.212;2023-03-20T06:25:12;8.90;99.90
285;DHT22;127;48.770;9.212;2023-03-20T06:27:45;9.00;99.90
285;DHT22;127;48.770;9.212;2023-03-20T06:30:15;9.00;99.90
285;DHT22;127;48.770;9.212;2023-03-20T06:32:43;9.00;99.90
285;DHT22;127;48.770;9.212;2023-03-20T06:35:13;8.90;99.90
285;DHT22;127;48.770;9.212;2023-03-20T06:37:42;9.00;99.90
285;DHT22;127;48.770;9.212;2023-03-20T06:40:11;9.10;99.90
285;DHT22;127;48.770;9.212;2023-03-20T06:42:40;9.10;99.90
285;DHT22;127;48.770;9.212;2023-03-20T06:45:11;9.20;99.90
285;DHT22;127;48.770;9.212;2023-03-20T06:47:40;9.30;99.90
285;DHT22;127;48.770;9.212;2023-03-20T06:50:10;9.40;99.90
285;DHT22;127;48.770;9.212;2023-03-20T06:52:39;9.30;99.90
285;DHT22;127;48.770;9.212;2023-03-20T06:55:08;9.50;99.90
285;DHT22;127;48.770;9.212;2023-03-20T06:57:37;9.40;99.90
285;DHT22;127;48.770;9.212;2023-03-20T07:00:07;9.40;99.90
285;DHT22;127;48.770;9.212;2023-03-20T07:02:39;9.50;99.90
285;DHT22;127;48.770;9.212;2023-03-20T07:05:08;9.50;99.90
285;DHT22;127;48.770;9.212;2023-03-20T07:07:37;9.50;99.90
285;DHT22;127;48.770;9.212;2023-03-20T07:10:07;9.80;99.90
285;DHT22;127;48.770;9.212;2023-03-20T07:12:37;9.50;99.90
285;DHT22;127;48.770;9.212;2023-03-20T07:15:06;9.80;99.90
285;DHT22;127;48.770;9.212;2023-03-20T07:17:38;9.70;99.90
285;DHT22;127;48.770;9.212;2023-03-20T07:20:08;9.80;99.90
285;DHT22;127;48.770;9.212;2023-03-20T07:22:38;10.10;99.90
285;DHT22;127;48.770;9.212;2023-03-20T07:25:08;10.20;99.90
285;DHT22;127;48.770;9.212;2023-03-20T07:27:36;10.30;99.90
285;DHT22;127;48.770;9.212;2023-03-20T07:30:06;10.20;99.90
285;DHT22;127;48.770;9.212;2023-03-20T07:32:38;10.30;99.90
285;DHT22;127;48.770;9.212;2023-03-20T07:35:07;10.20;99.90
285;DHT22;127;48.770;9.212;2023-03-20T07:37:36;9.90;99.90
285;DHT22;127;48.770;9.212;2023-03-20T07:40:06;9.80;99.90
285;DHT22;127;48.770;9.212;2023-03-20T07:42:35;9.80;99.90
285;DHT22;127;48.770;9.212;2023-03-20T07:45:05;9.70;99.90
285;DHT22;127;48.770;9.212;2023-03-20T07:47:34;9.90;99.90
285;DHT22;127;48.770;9.212;2023-03-20T07:50:06;10.00;99.90
285;DHT22;127;48.770;9.212;2023-03-20T07:52:34;9.90;99.90
285;DHT22;127;48.770;9.212;2023-03-20T07:55:04;10.20;99.90
285;DHT22;127;48.770;9.212;2023-03-20T07:57:33;10.50;99.90
285;DHT22;127;48.770;9.212;2023-03-20T08:00:02;10.50;99.90
285;DHT22;127;48.770;9.212;2023-03-20T08:02:30;10.60;99.90
285;DHT22;127;48.770;9.212;2023-03-20T08:04:59;10.90;99.90
285;DHT22;127;48.770;9.212;2023-03-20T08:07:31;11.00;99.90
285;DHT22;127;48.770;9.212;2023-03-20T08:10:00;11.20;99.90
285;DHT22;127;48.770;9.212;2023-03-20T08:12:28;11.40;99.90
285;DHT22;127;48.770;9.212;2023-03-20T08:14:57;11.70;99.90
285;DHT22;127;48.770;9.212;2023-03-20T08:17:26;12.10;99.90
285;DHT22;127;48.770;9.212;2023-03-20T08:19:54;12.30;99.90
285;DHT22;127;48.770;9.212;2023-03-20T08:22:23;12.40;99.90
285;DHT22;127;48.770;9.212;2023-03-20T08:24:54;12.40;99.90
285;DHT22;127;48.770;9.212;2023-03-20T08:27:23;12.10;99.90
285;DHT22;127;48.770;9.212;2023-03-20T08:29:51;11.90;99.90
285;DHT22;127;48.770;9.212;2023-03-20T08:32:20;11.80;99.90
285;DHT22;127;48.770;9.212;2023-03-20T08:34:48;11.70;99.90
285;DHT22;127;48.770;9.212;2023-03-20T08:37:19;11.50;99.90
285;DHT22;127;48.770;9.212;2023-03-20T08:39:48;11.50;99.90
285;DHT22;127;48.770;9.212;2023-03-20T08:42:19;11.80;99.90
285;DHT22;127;48.770;9.212;2023-03-20T08:44:48;11.90;99.90
285;DHT22;127;48.770;9.212;2023-03-20T08:47:17;12.10;99.90
285;DHT22;127;48.770;9.212;2023-03-20T08:49:45;12.10;99.90
285;DHT22;127;48.770;9.212;2023-03-20T08:52:14;12.20;99.90
285;DHT22;127;48.770;9.212;2023-03-20T08:54:42;12.10;99.90
285;DHT22;127;48.770;9.212;2023-03-20T08:57:11;12.10;99.90
285;DHT22;127;48.770;9.212;2023-03-20T08:59:43;12.10;99.90
285;DHT22;127;48.770;9.212;2023-03-20T09:02:11;12.20;99.90
285;DHT22;127;48.770;9.212;2023-03-20T09:04:40;12.40;99.90
285;DHT22;127;48.770;9.212;2023-03-20T09:07:08;12.60;99.90
285;DHT22;127;48.770;9.212;2023-03-20T09:09:37;12.70;99.90
285;DHT22;127;48.770;9.212;2023-03-20T09:12:06;12.60;99.90
285;DHT22;127;48.770;9.212;2023-03-20T09:14:35;12.80;99.90
285;DHT22;127;48.770;9.212;2023-03-20T09:17:06;13.10;99.90
285;DHT22;127;48.770;9.212;2023-03-20T09:19:35;12.90;99.90
285;DHT22;127;48.770;9.212;2023-03-20T09:22:07;13.10;99.90
285;DHT22;127;48.770;9.212;2023-03-20T09:24:36;13.30;99.90
285;DHT22;127;48.770;9.212;2023-03-20T09:27:05;13.30;99.90
285;DHT22;127;48.770;9.212;2023-03-20T09:29:34;13.10;99.90
285;DHT22;127;48.770;9.212;2023-03-20T09:32:05;13.20;99.90
285;DHT22;127;48.770;9.212;2023-03-20T09:34:34;13.30;99.90
285;DHT22;127;48.770;9.212;2023-03-20T09:37:03;13.20;99.90
285;DHT22;127;48.770;9.212;2023-03-20T09:39:31;13.20;99.90
285;DHT22;127;48.770;9.212;2023-03-20T09:42:05;13.40;99.90
285;DHT22;127;48.770;9.212;2023-03-20T09:44:45;13.60;99.90
285;DHT22;127;48.770;9.212;2023-03-20T09:47:29;13.60;99.90
285;DHT22;127;48.770;9.212;2023-03-20T09:50:10;13.40;99.90
285;DHT22;127;48.770;9.212;2023-03-20T09:52:54;13.30;99.90
285;DHT22;127;48.770;9.212;2023-03-20T09:55:29;13.30;99.90
285;DHT22;127;48.770;9.212;2023-03-20T09:58:04;13.30;99.90
285;DHT22;127;48.770;9.212;2023-03-20T10:00:33;13.40;99.90
285;DHT22;127;48.770;9.212;2023-03-20T10:03:11;13.50;99.90
285;DHT22;127;48.770;9.212;2023-03-20T10:05:45;13.40;99.90
285;DHT22;127;48.770;9.212;2023-03-20T10:08:15;13.70;99.90
285;DHT22;127;48.770;9.212;2023-03-20T10:10:49;14.10;99.90
285;DHT22;127;48.770;9.212;2023-03-20T10:13:30;14.20;99.90
285;DHT22;127;48.770;9.212;2023-03-20T10:16:07;13.80;99.90
285;DHT22;127;48.770;9.212;2023-03-20T10:18:48;13.90;99.90
285;DHT22;127;48.770;9.212;2023-03-20T10:21:22;14.10;99.90
285;DHT22;127;48.770;9.212;2023-03-20T10:23:57;14.30;99.90
285;DHT22;127;48.770;9.212;2023-03-20T10:26:30;14.60;99.90
285;DHT22;127;48.770;9.212;2023-03-20T10:29:05;14.70;99.90
285;DHT22;127;48.770;9.212;2023-03-20T10:31:42;14.80;99.90
285;DHT22;127;48.770;9.212;2023-03-20T10:34:29;14.70;99.90
285;DHT22;127;48.770;9.212;2023-03-20T10:37:11;14.50;99.90
285;DHT22;127;48.770;9.212;2023-03-20T10:39:50;14.20;99.90
285;DHT22;127;48.770;9.212;2023-03-20T10:42:26;13.80;99.90
285;DHT22;127;48.770;9.212;2023-03-20T10:44:58;13.30;99.90
285;DHT22;127;48.770;9.212;2023-03-20T10:47:33;13.20;99.90
285;DHT22;127;48.770;9.212;2023-03-20T10:50:06;13.20;99.90
285;DHT22;127;48.770;9.212;2023-03-20T10:52:40;13.20;99.90
285;DHT22;127;48.770;9.212;2023-03-20T10:55:11;13.00;99.90
285;DHT22;127;48.770;9.212;2023-03-20T10:57:46;13.10;99.90
285;DHT22;127;48.770;9.212;2023-03-20T11:00:21;13.00;99.90
285;DHT22;127;48.770;9.212;2023-03-20T11:02:50;12.90;99.90
285;DHT22;127;48.770;9.212;2023-03-20T11:05:27;12.90;99.90
285;DHT22;127;48.770;9.212;2023-03-20T11:08:02;12.90;99.90
285;DHT22;127;48.770;9.212;2023-03-20T11:10:34;12.80;99.90
285;DHT22;127;48.770;9.212;2023-03-20T11:13:13;12.70;99.90
285;DHT22;127;48.770;9.212;2023-03-20T11:15:44;12.80;99.90
285;DHT22;127;48.770;9.212;2023-03-20T11:18:14;12.80;99.90
285;DHT22;127;48.770;9.212;2023-03-20T11:20:49;12.90;99.90
285;DHT22;127;48.770;9.212;2023-03-20T11:23:23;13.00;99.90
285;DHT22;127;48.770;9.212;2023-03-20T11:25:56;13.20;99.90
285;DHT22;127;48.770;9.212;2023-03-20T11:28:30;13.50;99.90
285;DHT22;127;48.770;9.212;2023-03-20T11:31:03;13.50;99.90
285;DHT22;127;48.770;9.212;2023-03-20T11:33:36;13.60;99.90
285;DHT22;127;48.770;9.212;2023-03-20T11:36:20;13.40;99.90
285;DHT22;127;48.770;9.212;2023-03-20T11:38:50;13.60;99.90
285;DHT22;127;48.770;9.212;2023-03-20T11:41:23;13.80;99.90
285;DHT22;127;48.770;9.212;2023-03-20T11:43:53;13.80;99.90
285;DHT22;127;48.770;9.212;2023-03-20T11:46:22;13.80;99.90
285;DHT22;127;48.770;9.212;2023-03-20T11:49:06;13.70;99.90
285;DHT22;127;48.770;9.212;2023-03-20T11:51:38;13.60;99.90
285;DHT22;127;48.770;9.212;2023-03-20T11:54:15;13.50;99.90
285;DHT22;127;48.770;9.212;2023-03-20T11:56:52;13.30;99.90
285;DHT22;127;48.770;9.212;2023-03-20T11:59:21;13.40;99.90
285;DHT22;127;48.770;9.212;2023-03-20T12:01:54;13.40;99.90
285;DHT22;127;48.770;9.212;2023-03-20T12:04:27;13.60;99.90
285;DHT22;127;48.770;9.212;2023-03-20T12:07:02;13.70;99.90
285;DHT22;127;48.770;9.212;2023-03-20T12:09:39;13.90;99.90
285;DHT22;127;48.770;9.212;2023-03-20T12:12:16;14.60;99.90
285;DHT22;127;48.770;9.212;2023-03-20T12:14:53;15.20;99.90
285;DHT22;127;48.770;9.212;2023-03-20T12:17:39;15.70;99.90
285;DHT22;127;48.770;9.212;2023-03-20T12:20:24;16.40;99.90
285;DHT22;127;48.770;9.212;2023-03-20T12:23:02;17.30;99.90
285;DHT22;127;48.770;9.212;2023-03-20T12:25:37;17.60;99.90
285;DHT22;127;48.770;9.212;2023-03-20T12:28:13;17.50;99.90
285;DHT22;127;48.770;9.212;2023-03-20T12:30:53;17.80;99.90
285;DHT22;127;48.770;9.212;2023-03-20T12:33:33;18.80;99.90
285;DHT22;127;48.770;9.212;2023-03-20T12:36:11;19.70;99.90
285;DHT22;127;48.770;9.212;2023-03-20T12:38:44;19.80;99.90
285;DHT22;127;48.770;9.212;2023-03-20T12:41:16;19.10;99.90
285;DHT22;127;48.770;9.212;2023-03-20T12:44:06;18.40;99.90
285;DHT22;127;48.770;9.212;2023-03-20T12:46:43;17.70;99.90
285;DHT22;127;48.770;9.212;2023-03-20T12:49:23;17.20;99.90
285;DHT22;127;48.770;9.212;2023-03-20T12:52:03;17.00;99.90
285;DHT22;127;48.770;9.212;2023-03-20T12:57:35;16.70;99.90
285;DHT22;127;48.770;9.212;2023-03-20T13:00:13;16.70;99.90
285;DHT22;127;48.770;9.212;2023-03-20T13:02:50;17.30;99.90
285;DHT22;127;48.770;9.212;2023-03-20T13:05:32;17.60;99.90
285;DHT22;127;48.770;9.212;2023-03-20T13:08:25;17.70;99.90
285;DHT22;127;48.770;9.212;2023-03-20T13:11:08;17.10;99.90
285;DHT22;127;48.770;9.212;2023-03-20T13:13:42;17.00;99.90
285;DHT22;127;48.770;9.212;2023-03-20T13:16:18;16.80;99.90
285;DHT22;127;48.770;9.212;2023-03-20T13:18:56;16.60;99.90
285;DHT22;127;48.770;9.212;2023-03-20T13:21:31;16.50;99.90
285;DHT22;127;48.770;9.212;2023-03-20T13:24:12;16.30;99.90
285;DHT22;127;48.770;9.212;2023-03-20T13:26:51;16.20;99.90
285;DHT22;127;48.770;9.212;2023-03-20T13:29:27;15.60;99.90
285;DHT22;127;48.770;9.212;2023-03-20T13:32:05;14.70;99.90
285;DHT22;127;48.770;9.212;2023-03-20T13:34:50;15.20;99.90
285;DHT22;127;48.770;9.212;2023-03-20T13:37:24;15.40;99.90
285;DHT22;127;48.770;9.212;2023-03-20T13:40:05;15.50;99.90
285;DHT22;127;48.770;9.212;2023-03-20T13:42:39;15.60;99.90
285;DHT22;127;48.770;9.212;2023-03-20T13:45:30;15.80;99.90
285;DHT22;127;48.770;9.212;2023-03-20T13:48:05;15.70;99.90
285;DHT22;127;48.770;9.212;2023-03-20T13:50:42;15.80;99.90
285;DHT22;127;48.770;9.212;2023-03-20T13:53:22;15.50;99.90
285;DHT22;127;48.770;9.212;2023-03-20T13:55:59;15.20;99.90
285;DHT22;127;48.770;9.212;2023-03-20T13:58:55;15.20;99.90
285;DHT22;127;48.770;9.212;2023-03-20T14:01:34;15.00;99.90
285;DHT22;127;48.770;9.212;2023-03-20T14:04:08;14.60;99.90
285;DHT22;127;48.770;9.212;2023-03-20T14:06:50;14.50;99.90
285;DHT22;127;48.770;9.212;2023-03-20T14:09:33;14.10;99.90
285;DHT22;127;48.770;9.212;2023-03-20T14:12:04;13.80;99.90
285;DHT22;127;48.770;9.212;2023-03-20T14:14:42;14.10;99.90
285;DHT22;127;48.770;9.212;2023-03-20T14:17:16;14.50;99.90
285;DHT22;127;48.770;9.212;2023-03-20T14:19:47;14.40;99.90
285;DHT22;127;48.770;9.212;2023-03-20T14:22:18;14.80;99.90
285;DHT22;127;48.770;9.212;2023-03-20T14:24:55;15.20;99.90
285;DHT22;127;48.770;9.212;2023-03-20T14:27:26;15.10;99.90
285;DHT22;127;48.770;9.212;2023-03-20T14:33:29;15.20;99.90
285;DHT22;127;48.770;9.212;2023-03-20T14:36:17;15.10;99.90
285;DHT22;127;48.770;9.212;2023-03-20T14:38:52;15.00;99.90
285;DHT22;127;48.770;9.212;2023-03-20T14:41:27;15.30;99.90
285;DHT22;127;48.770;9.212;2023-03-20T14:44:13;15.30;99.90
285;DHT22;127;48.770;9.212;2023-03-20T14:46:49;15.20;99.90
285;DHT22;127;48.770;9.212;2023-03-20T14:49:33;15.20;99.90
285;DHT22;127;48.770;9.212;2023-03-20T14:52:19;15.00;99.90
285;DHT22;127;48.770;9.212;2023-03-20T14:54:53;14.90;99.90
285;DHT22;127;48.770;9.212;2023-03-20T14:57:29;14.90;99.90
285;DHT22;127;48.770;9.212;2023-03-20T14:59:59;14.90;99.90
285;DHT22;127;48.770;9.212;2023-03-20T15:02:33;14.70;99.90
285;DHT22;127;48.770;9.212;2023-03-20T15:05:18;14.70;99.90
285;DHT22;127;48.770;9.212;2023-03-20T15:07:48;14.70;99.90
285;DHT22;127;48.770;9.212;2023-03-20T15:10:16;14.70;99.90
285;DHT22;127;48.770;9.212;2023-03-20T15:12:46;14.60;99.90
285;DHT22;127;48.770;9.212;2023-03-20T15:15:24;14.50;99.90
285;DHT22;127;48.770;9.212;2023-03-20T15:17:53;14.00;99.90
285;DHT22;127;48.770;9.212;2023-03-20T15:20:25;13.90;99.90
285;DHT22;127;48.770;9.212;2023-03-20T15:22:56;13.70;99.90
285;DHT22;127;48.770;9.212;2023-03-20T15:25:30;13.70;99.90
285;DHT22;127;48.770;9.212;2023-03-20T15:27:59;14.00;99.90
285;DHT22;127;48.770;9.212;2023-03-20T15:30:31;14.20;99.90
285;DHT22;127;48.770;9.212;2023-03-20T15:33:01;14.30;99.90
285;DHT22;127;48.770;9.212;2023-03-20T15:35:32;14.40;99.90
285;DHT22;127;48.770;9.212;2023-03-20T15:38:04;14.60;99.90
285;DHT22;127;48.770;9.212;2023-03-20T15:40:38;14.70;99.90
285;DHT22;127;48.770;9.212;2023-03-20T15:43:11;14.80;99.90
285;DHT22;127;48.770;9.212;2023-03-20T15:45:42;14.40;99.90
285;DHT22;127;48.770;9.212;2023-03-20T15:48:13;14.50;99.90
285;DHT22;127;48.770;9.212;2023-03-20T15:50:48;14.30;99.90
285;DHT22;127;48.770;9.212;2023-03-20T15:53:20;14.20;99.90
285;DHT22;127;48.770;9.212;2023-03-20T15:55:52;14.10;99.90
285;DHT22;127;48.770;9.212;2023-03-20T15:58:26;14.10;99.90
285;DHT22;127;48.770;9.212;2023-03-20T16:00:57;14.00;99.90
285;DHT22;127;48.770;9.212;2023-03-20T16:03:27;13.90;99.90
285;DHT22;127;48.770;9.212;2023-03-20T16:06:00;13.60;99.90
285;DHT22;127;48.770;9.212;2023-03-20T16:08:31;13.40;99.90
285;DHT22;127;48.770;9.212;2023-03-20T16:11:02;13.50;99.90
285;DHT22;127;48.770;9.212;2023-03-20T16:13:34;13.50;99.90
285;DHT22;127;48.770;9.212;2023-03-20T16:16:04;13.50;99.90
285;DHT22;127;48.770;9.212;2023-03-20T16:18:37;13.50;99.90
285;DHT22;127;48.770;9.212;2023-03-20T16:21:14;13.40;99.90
285;DHT22;127;48.770;9.212;2023-03-20T16:23:47;13.50;99.90
285;DHT22;127;48.770;9.212;2023-03-20T16:26:19;13.40;99.90
285;DHT22;127;48.770;9.212;2023-03-20T16:28:49;13.40;99.90
285;DHT22;127;48.770;9.212;2023-03-20T16:31:21;13.50;99.90
285;DHT22;127;48.770;9.212;2023-03-20T16:33:52;13.40;99.90
285;DHT22;127;48.770;9.212;2023-03-20T16:36:34;13.20;99.90
285;DHT22;127;48.770;9.212;2023-03-20T16:39:07;13.10;99.90
285;DHT22;127;48.770;9.212;2023-03-20T16:41:38;13.10;99.90
285;DHT22;127;48.770;9.212;2023-03-20T16:44:11;13.10;99.90
285;DHT22;127;48.770;9.212;2023-03-20T16:46:56;13.20;99.90
285;DHT22;127;48.770;9.212;2023-03-20T16:50:03;13.30;99.90
285;DHT22;127;48.770;9.212;2023-03-20T16:52:39;13.00;99.90
285;DHT22;127;48.770;9.212;2023-03-20T16:55:15;12.90;99.90
285;DHT22;127;48.770;9.212;2023-03-20T16:57:50;12.70;99.90
285;DHT22;127;48.770;9.212;2023-03-20T17:00:24;12.30;99.90
285;DHT22;127;48.770;9.212;2023-03-20T17:02:59;12.30;99.90
285;DHT22;127;48.770;9.212;2023-03-20T17:05:50;12.20;99.90
285;DHT22;127;48.770;9.212;2023-03-20T17:08:33;12.10;99.90
285;DHT22;127;48.770;9.212;2023-03-20T17:11:08;11.90;99.90
285;DHT22;127;48.770;9.212;2023-03-20T17:13:38;11.80;99.90
285;DHT22;127;48.770;9.212;2023-03-20T17:16:19;11.70;99.90
285;DHT22;127;48.770;9.212;2023-03-20T17:18:58;11.60;99.90
285;DHT22;127;48.770;9.212;2023-03-20T17:21:27;11.60;99.90
285;DHT22;127;48.770;9.212;2023-03-20T17:23:59;11.50;99.90
285;DHT22;127;48.770;9.212;2023-03-20T17:26:28;11.50;99.90
285;DHT22;127;48.770;9.212;2023-03-20T17:28:57;11.40;99.90
285;DHT22;127;48.770;9.212;2023-03-20T17:31:26;11.40;99.90
285;DHT22;127;48.770;9.212;2023-03-20T17:33:55;11.30;99.90
285;DHT22;127;48.770;9.212;2023-03-20T17:36:25;11.20;99.90
285;DHT22;127;48.770;9.212;2023-03-20T17:38:55;11.20;99.90